createdAt,value
2019-03-25T00:00:48.623Z,85.98
2019-03-25T00:01:48.612Z,85.46
2019-03-25T00:02:48.602Z,85.46
2019-03-25T00:03:48.593Z,86.50
2019-03-25T00:04:48.579Z,86.29
2019-03-25T00:05:48.568Z,86.40
2019-03-25T00:06:48.560Z,86.08
2019-03-25T00:07:48.549Z,86.54
2019-03-25T00:08:48.536Z,87.02
2019-03-25T00:09:48.525Z,86.96
2019-03-25T00:10:48.517Z,86.65
2019-03-25T00:11:48.503Z,86.22
2019-03-25T00:12:48.498Z,86.08
2019-03-25T00:13:48.485Z,86.08
2019-03-25T00:14:48.536Z,86.19
2019-03-25T00:15:48.466Z,86.50
2019-03-25T00:16:48.454Z,86.29
2019-03-25T00:17:48.439Z,86.40
2019-03-25T00:18:48.436Z,86.08
2019-03-25T00:19:48.419Z,86.29
2019-03-25T00:20:48.414Z,86.50
2019-03-25T00:21:48.398Z,86.50
2019-03-25T00:22:48.388Z,86.35
2019-03-25T00:23:48.375Z,86.15
2019-03-25T00:24:48.366Z,86.04
2019-03-25T00:25:48.358Z,86.25
2019-03-25T00:26:48.348Z,86.35
2019-03-25T00:27:48.333Z,86.67
2019-03-25T00:28:48.327Z,87.02
2019-03-25T00:29:48.314Z,87.50
2019-03-25T00:30:48.300Z,86.98
2019-03-25T00:31:48.290Z,86.77
2019-03-25T00:32:48.280Z,86.60
2019-03-25T00:33:48.272Z,86.29
2019-03-25T00:34:48.259Z,85.94
2019-03-25T00:35:48.254Z,86.19
2019-03-25T00:36:48.237Z,86.40
2019-03-25T00:37:48.227Z,86.29
2019-03-25T00:38:48.235Z,86.40
2019-03-25T00:39:48.204Z,86.29
2019-03-25T00:40:48.194Z,86.19
2019-03-25T00:41:48.185Z,86.40
2019-03-25T00:42:48.177Z,87.12
2019-03-25T00:43:48.163Z,88.27
2019-03-25T00:44:48.151Z,87.12
2019-03-25T00:45:48.144Z,87.75
2019-03-25T00:46:48.130Z,87.16
2019-03-25T00:47:48.120Z,87.06
2019-03-25T00:48:48.112Z,86.96
2019-03-25T00:49:48.100Z,86.65
2019-03-25T00:50:48.091Z,87.37
2019-03-25T00:51:48.076Z,87.27
2019-03-25T00:52:48.065Z,87.06
2019-03-25T00:53:48.059Z,87.20
2019-03-25T00:54:50.129Z,87.16
2019-03-25T00:55:48.035Z,87.37
2019-03-25T00:56:48.026Z,87.16
2019-03-25T00:57:48.016Z,87.48
2019-03-25T00:58:48.002Z,87.16
2019-03-25T00:59:49.069Z,86.75
2019-03-25T01:00:47.984Z,86.60
2019-03-25T01:01:47.970Z,86.81
2019-03-25T01:02:47.965Z,86.54
2019-03-25T01:03:47.952Z,86.71
2019-03-25T01:04:47.939Z,87.12
2019-03-25T01:05:47.930Z,86.60
2019-03-25T01:06:47.920Z,86.81
2019-03-25T01:07:47.909Z,86.50
2019-03-25T01:08:47.904Z,86.40
2019-03-25T01:09:47.889Z,86.04
2019-03-25T01:10:47.872Z,86.35
2019-03-25T01:11:49.324Z,85.52
2019-03-25T01:12:47.860Z,85.63
2019-03-25T01:13:47.851Z,85.42
2019-03-25T01:14:47.836Z,85.42
2019-03-25T01:15:47.823Z,85.11
2019-03-25T01:16:47.813Z,85.11
2019-03-25T01:17:47.801Z,84.86
2019-03-25T01:18:47.795Z,85.38
2019-03-25T01:19:47.777Z,85.28
2019-03-25T01:20:47.769Z,84.55
2019-03-25T01:21:47.761Z,85.17
2019-03-25T01:22:47.747Z,84.55
2019-03-25T01:23:47.739Z,84.44
2019-03-25T01:24:47.726Z,84.13
2019-03-25T01:25:47.715Z,84.03
2019-03-25T01:26:47.707Z,83.99
2019-03-25T01:27:47.693Z,83.72
2019-03-25T01:28:47.691Z,83.47
2019-03-25T01:29:47.669Z,83.61
2019-03-25T01:30:47.664Z,83.58
2019-03-25T01:31:47.650Z,83.68
2019-03-25T01:32:47.638Z,83.61
2019-03-25T01:33:47.627Z,85.13
2019-03-25T01:34:47.619Z,83.89
2019-03-25T01:35:47.609Z,83.68
2019-03-25T01:36:47.597Z,84.09
2019-03-25T01:37:47.584Z,82.95
2019-03-25T01:38:47.577Z,83.78
2019-03-25T01:39:47.568Z,84.09
2019-03-25T01:40:47.552Z,83.72
2019-03-25T01:41:47.545Z,83.51
2019-03-25T01:42:47.530Z,83.37
2019-03-25T01:43:47.523Z,83.30
2019-03-25T01:44:47.511Z,85.13
2019-03-25T01:45:47.498Z,84.44
2019-03-25T01:46:47.487Z,83.72
2019-03-25T01:47:47.479Z,84.92
2019-03-25T01:48:47.473Z,84.72
2019-03-25T01:49:47.465Z,85.06
2019-03-25T01:50:47.448Z,84.03
2019-03-25T01:51:47.434Z,83.82
2019-03-25T01:52:47.427Z,83.37
2019-03-25T01:53:47.414Z,83.68
2019-03-25T01:54:47.404Z,83.82
2019-03-25T01:55:47.395Z,84.13
2019-03-25T01:56:47.383Z,84.23
2019-03-25T01:57:47.370Z,83.82
2019-03-25T01:58:47.364Z,85.13
2019-03-25T01:59:47.352Z,84.34
2019-03-25T02:00:47.340Z,84.23
2019-03-25T02:01:47.326Z,83.82
2019-03-25T02:02:47.315Z,83.61
2019-03-25T02:03:47.308Z,83.78
2019-03-25T02:04:47.297Z,83.51
2019-03-25T02:05:47.286Z,84.34
2019-03-25T02:06:47.274Z,84.96
2019-03-25T02:07:47.265Z,84.86
2019-03-25T02:08:47.253Z,85.17
2019-03-25T02:09:47.245Z,85.06
2019-03-25T02:10:47.233Z,84.44
2019-03-25T02:11:47.222Z,84.34
2019-03-25T02:12:47.210Z,84.65
2019-03-25T02:13:47.202Z,84.75
2019-03-25T02:14:47.190Z,84.44
2019-03-25T02:15:47.180Z,84.23
2019-03-25T02:16:47.169Z,84.03
2019-03-25T02:17:47.157Z,83.68
2019-03-25T02:18:47.152Z,83.72
2019-03-25T02:19:47.137Z,83.40
2019-03-25T02:20:47.129Z,82.89
2019-03-25T02:21:47.114Z,83.16
2019-03-25T02:22:47.341Z,82.84
2019-03-25T02:23:47.097Z,82.99
2019-03-25T02:24:47.084Z,83.37
2019-03-25T02:25:47.074Z,82.43
2019-03-25T02:26:47.060Z,82.43
2019-03-25T02:27:47.052Z,82.95
2019-03-25T02:28:47.044Z,81.91
2019-03-25T02:29:47.027Z,81.81
2019-03-25T02:30:47.024Z,82.43
2019-03-25T02:31:47.012Z,82.43
2019-03-25T02:32:46.996Z,82.32
2019-03-25T02:33:46.986Z,81.81
2019-03-25T02:35:01.605Z,81.91
2019-03-25T02:35:46.975Z,82.12
2019-03-25T02:36:46.953Z,81.91
2019-03-25T02:37:46.943Z,81.81
2019-03-25T02:38:46.934Z,81.49
2019-03-25T02:39:46.921Z,81.39
2019-03-25T02:40:46.915Z,81.49
2019-03-25T02:41:46.901Z,81.39
2019-03-25T02:42:46.890Z,81.39
2019-03-25T02:43:46.885Z,81.18
2019-03-25T02:44:46.867Z,81.81
2019-03-25T02:45:46.857Z,81.39
2019-03-25T02:46:46.848Z,81.70
2019-03-25T02:47:46.836Z,81.29
2019-03-25T02:48:46.827Z,81.84
2019-03-25T02:49:46.821Z,81.74
2019-03-25T02:50:46.806Z,81.32
2019-03-25T02:51:46.794Z,81.43
2019-03-25T02:52:46.784Z,81.22
2019-03-25T02:53:46.773Z,81.63
2019-03-25T02:54:46.760Z,81.01
2019-03-25T02:55:46.751Z,81.84
2019-03-25T02:56:46.743Z,81.77
2019-03-25T02:57:46.729Z,81.88
2019-03-25T02:58:46.721Z,81.88
2019-03-25T02:59:46.707Z,81.98
2019-03-25T03:00:46.701Z,81.98
2019-03-25T03:01:46.687Z,82.09
2019-03-25T03:02:46.678Z,82.09
2019-03-25T03:03:46.664Z,82.03
2019-03-25T03:04:46.655Z,82.30
2019-03-25T03:05:46.645Z,82.30
2019-03-25T03:06:46.633Z,82.34
2019-03-25T03:07:46.623Z,82.30
2019-03-25T03:08:47.658Z,82.40
2019-03-25T03:09:46.604Z,82.54
2019-03-25T03:10:46.592Z,82.65
2019-03-25T03:11:46.583Z,82.75
2019-03-25T03:12:46.570Z,82.86
2019-03-25T03:13:46.567Z,82.54
2019-03-25T03:14:46.550Z,82.54
2019-03-25T03:15:46.537Z,82.96
2019-03-25T03:16:46.526Z,82.54
2019-03-25T03:17:46.519Z,82.54
2019-03-25T03:18:46.507Z,82.86
2019-03-25T03:19:46.493Z,82.75
2019-03-25T03:20:46.486Z,82.86
2019-03-25T03:21:46.474Z,82.34
2019-03-25T03:22:46.472Z,82.40
2019-03-25T03:23:46.473Z,81.98
2019-03-25T03:24:46.441Z,81.77
2019-03-25T03:25:57.336Z,82.09
2019-03-25T03:26:47.421Z,81.36
2019-03-25T03:27:46.413Z,81.57
2019-03-25T03:28:46.405Z,81.46
2019-03-25T03:29:46.387Z,81.26
2019-03-25T03:30:46.377Z,82.09
2019-03-25T03:31:46.410Z,81.98
2019-03-25T03:32:46.507Z,81.88
2019-03-25T03:33:46.346Z,81.98
2019-03-25T03:34:46.348Z,82.09
2019-03-25T03:35:46.780Z,81.88
2019-03-25T03:36:46.313Z,82.26
2019-03-25T03:37:46.305Z,82.05
2019-03-25T03:38:46.301Z,82.20
2019-03-25T03:39:46.280Z,81.88
2019-03-25T03:40:46.334Z,81.05
2019-03-25T03:41:46.261Z,81.12
2019-03-25T03:42:46.249Z,81.22
2019-03-25T03:43:46.239Z,81.01
2019-03-25T03:44:46.227Z,80.80
2019-03-25T03:45:46.218Z,80.80
2019-03-25T03:46:46.205Z,81.43
2019-03-25T03:47:46.199Z,80.91
2019-03-25T03:48:46.186Z,81.15
2019-03-25T03:49:46.201Z,81.77
2019-03-25T03:50:46.164Z,81.43
2019-03-25T03:51:46.153Z,81.88
2019-03-25T03:52:46.143Z,81.46
2019-03-25T03:53:46.137Z,81.88
2019-03-25T03:54:46.162Z,81.26
2019-03-25T03:55:46.109Z,81.67
2019-03-25T03:56:46.099Z,81.26
2019-03-25T03:57:46.093Z,81.36
2019-03-25T03:58:46.083Z,81.46
2019-03-25T03:59:46.066Z,81.22
2019-03-25T04:00:46.057Z,80.80
2019-03-25T04:01:46.046Z,81.67
2019-03-25T04:02:46.038Z,81.22
2019-03-25T04:03:46.026Z,81.22
2019-03-25T04:04:46.015Z,81.01
2019-03-25T04:05:46.003Z,80.91
2019-03-25T04:06:45.994Z,81.32
2019-03-25T04:07:45.980Z,80.80
2019-03-25T04:08:45.973Z,80.80
2019-03-25T04:09:45.960Z,80.80
2019-03-25T04:10:45.950Z,80.49
2019-03-25T04:11:45.939Z,80.80
2019-03-25T04:12:45.930Z,80.49
2019-03-25T04:13:45.920Z,80.91
2019-03-25T04:14:45.906Z,80.60
2019-03-25T04:15:45.900Z,81.01
2019-03-25T04:16:45.887Z,80.80
2019-03-25T04:17:45.874Z,80.39
2019-03-25T04:18:45.870Z,80.80
2019-03-25T04:19:45.856Z,80.60
2019-03-25T04:20:45.842Z,80.49
2019-03-25T04:21:45.837Z,80.70
2019-03-25T04:22:45.820Z,80.91
2019-03-25T04:23:46.487Z,80.91
2019-03-25T04:24:45.799Z,80.60
2019-03-25T04:25:45.790Z,81.12
2019-03-25T04:26:45.779Z,81.32
2019-03-25T04:27:45.768Z,81.63
2019-03-25T04:28:45.764Z,81.53
2019-03-25T04:29:45.749Z,81.26
2019-03-25T04:30:45.736Z,81.67
2019-03-25T04:31:45.725Z,82.26
2019-03-25T04:32:45.713Z,82.30
2019-03-25T04:33:45.705Z,81.84
2019-03-25T04:34:45.713Z,82.40
2019-03-25T04:35:45.682Z,82.15
2019-03-25T04:36:45.673Z,81.95
2019-03-25T04:37:45.663Z,82.15
2019-03-25T04:38:45.653Z,81.95
2019-03-25T04:39:45.641Z,81.95
2019-03-25T04:40:45.634Z,81.43
2019-03-25T04:41:45.618Z,81.91
2019-03-25T04:42:45.607Z,82.01
2019-03-25T04:43:45.599Z,81.49
2019-03-25T04:44:45.585Z,81.60
2019-03-25T04:45:45.577Z,81.39
2019-03-25T04:46:45.565Z,81.35
2019-03-25T04:47:45.554Z,81.04
2019-03-25T04:48:45.547Z,80.83
2019-03-25T04:49:45.535Z,80.73
2019-03-25T04:50:45.523Z,80.32
2019-03-25T04:51:45.513Z,80.42
2019-03-25T04:52:45.501Z,80.28
2019-03-25T04:53:45.489Z,80.18
2019-03-25T04:54:45.478Z,80.18
2019-03-25T04:55:45.467Z,79.24
2019-03-25T04:56:45.461Z,78.82
2019-03-25T04:57:45.447Z,78.72
2019-03-25T04:58:45.440Z,78.82
2019-03-25T04:59:45.425Z,78.61
2019-03-25T05:00:45.415Z,78.51
2019-03-25T05:01:45.403Z,78.51
2019-03-25T05:02:45.394Z,77.99
2019-03-25T05:03:45.383Z,77.99
2019-03-25T05:04:45.431Z,77.75
2019-03-25T05:05:45.363Z,78.06
2019-03-25T05:06:45.351Z,77.75
2019-03-25T05:07:45.344Z,77.64
2019-03-25T05:08:45.330Z,77.95
2019-03-25T05:09:45.320Z,77.95
2019-03-25T05:10:45.315Z,77.85
2019-03-25T05:11:45.299Z,77.64
2019-03-25T05:12:45.286Z,77.12
2019-03-25T05:13:45.283Z,77.23
2019-03-25T05:14:45.266Z,77.20
2019-03-25T05:15:45.257Z,77.44
2019-03-25T05:16:45.244Z,77.85
2019-03-25T05:17:45.234Z,77.54
2019-03-25T05:18:45.226Z,77.75
2019-03-25T05:19:45.212Z,77.44
2019-03-25T05:20:45.201Z,77.75
2019-03-25T05:21:45.198Z,77.40
2019-03-25T05:22:45.181Z,77.72
2019-03-25T05:23:45.172Z,77.61
2019-03-25T05:24:45.160Z,77.30
2019-03-25T05:25:45.149Z,77.51
2019-03-25T05:26:51.055Z,77.40
2019-03-25T05:27:46.125Z,77.72
2019-03-25T05:28:45.118Z,77.30
2019-03-25T05:29:45.103Z,77.30
2019-03-25T05:30:45.173Z,77.51
2019-03-25T05:31:45.090Z,77.30
2019-03-25T05:32:45.075Z,77.30
2019-03-25T05:33:45.062Z,77.68
2019-03-25T05:34:45.054Z,77.26
2019-03-25T05:35:46.870Z,77.58
2019-03-25T05:36:45.029Z,77.16
2019-03-25T05:37:45.020Z,77.37
2019-03-25T05:38:45.013Z,77.37
2019-03-25T05:39:44.997Z,77.16
2019-03-25T05:40:44.989Z,77.47
2019-03-25T05:41:44.977Z,77.58
2019-03-25T05:42:44.966Z,77.47
2019-03-25T05:43:44.955Z,77.06
2019-03-25T05:44:44.947Z,76.92
2019-03-25T05:45:44.934Z,77.12
2019-03-25T05:46:44.924Z,76.40
2019-03-25T05:47:44.912Z,76.29
2019-03-25T05:48:44.904Z,76.19
2019-03-25T05:49:44.890Z,76.09
2019-03-25T05:50:44.884Z,75.43
2019-03-25T05:51:44.869Z,75.53
2019-03-25T05:52:44.858Z,75.53
2019-03-25T05:53:44.848Z,75.32
2019-03-25T05:54:44.839Z,76.15
2019-03-25T05:55:44.830Z,76.15
2019-03-25T05:56:44.814Z,76.78
2019-03-25T05:57:44.804Z,77.50
2019-03-25T05:58:44.798Z,77.75
2019-03-25T05:59:44.783Z,77.33
2019-03-25T06:00:44.776Z,77.75
2019-03-25T06:01:44.762Z,78.37
2019-03-25T06:02:44.751Z,79.61
2019-03-25T06:03:44.741Z,81.30
2019-03-25T06:04:44.730Z,82.97
2019-03-25T06:05:44.720Z,84.15
2019-03-25T06:06:44.713Z,85.22
2019-03-25T06:07:44.697Z,86.93
2019-03-25T06:08:44.691Z,86.61
2019-03-25T06:09:44.677Z,88.21
2019-03-25T06:10:44.664Z,88.94
2019-03-25T06:11:44.693Z,89.87
2019-03-25T06:12:44.645Z,90.08
2019-03-25T06:13:44.635Z,89.98
2019-03-25T06:14:44.622Z,90.08
2019-03-25T06:15:44.613Z,89.98
2019-03-25T06:16:44.602Z,90.77
2019-03-25T06:17:44.920Z,91.43
2019-03-25T06:18:44.580Z,91.12
2019-03-25T06:19:44.592Z,90.45
2019-03-25T06:20:44.559Z,90.66
2019-03-25T06:21:44.576Z,90.50
2019-03-25T06:22:44.551Z,90.60
2019-03-25T06:23:44.668Z,90.56
2019-03-25T06:24:44.646Z,90.87
2019-03-25T06:25:44.588Z,91.53
2019-03-25T06:26:44.495Z,91.60
2019-03-25T06:27:44.483Z,91.64
2019-03-25T06:28:44.473Z,92.26
2019-03-25T06:29:45.269Z,92.26
2019-03-25T06:30:44.453Z,93.20
2019-03-25T06:31:44.505Z,93.55
2019-03-25T06:32:44.430Z,93.45
2019-03-25T06:33:44.419Z,93.60
2019-03-25T06:34:44.410Z,94.70
2019-03-25T06:35:44.398Z,94.95
2019-03-25T06:36:44.386Z,94.53
2019-03-25T06:37:44.377Z,94.84
2019-03-25T06:38:44.369Z,95.20
2019-03-25T06:39:44.357Z,95.51
2019-03-25T06:40:44.345Z,95.40
2019-03-25T06:41:44.338Z,96.03
2019-03-25T06:42:44.324Z,95.93
2019-03-25T06:43:44.313Z,96.39
2019-03-25T06:44:44.327Z,96.39
2019-03-25T06:45:44.295Z,96.97
2019-03-25T06:46:44.281Z,97.01
2019-03-25T06:47:44.269Z,97.22
2019-03-25T06:48:44.262Z,97.43
2019-03-25T06:49:44.249Z,97.06
2019-03-25T06:50:44.237Z,97.27
2019-03-25T06:51:45.273Z,97.68
2019-03-25T06:52:44.217Z,97.37
2019-03-25T06:53:44.212Z,97.58
2019-03-25T06:54:44.195Z,97.47
2019-03-25T06:55:44.183Z,97.37
2019-03-25T06:56:44.174Z,97.52
2019-03-25T06:57:44.167Z,98.46
2019-03-25T06:58:44.155Z,98.46
2019-03-25T06:59:44.143Z,98.35
2019-03-25T07:00:44.130Z,98.25
2019-03-25T07:01:44.121Z,98.77
2019-03-25T07:02:44.112Z,98.87
2019-03-25T07:03:44.099Z,98.60
2019-03-25T07:04:44.090Z,98.60
2019-03-25T07:05:44.078Z,98.50
2019-03-25T07:06:44.072Z,98.60
2019-03-25T07:07:44.058Z,98.60
2019-03-25T07:08:44.049Z,98.71
2019-03-25T07:09:44.035Z,98.75
2019-03-25T07:10:44.024Z,98.50
2019-03-25T07:11:44.014Z,99.02
2019-03-25T07:12:44.011Z,99.59
2019-03-25T07:13:43.993Z,99.27
2019-03-25T07:14:43.981Z,99.38
2019-03-25T07:15:44.286Z,99.17
2019-03-25T07:16:43.962Z,99.38
2019-03-25T07:17:43.950Z,99.38
2019-03-25T07:18:43.948Z,99.48
2019-03-25T07:19:43.928Z,98.86
2019-03-25T07:20:43.922Z,99.74
2019-03-25T07:21:43.908Z,99.95
2019-03-25T07:22:43.897Z,99.69
2019-03-25T07:23:43.891Z,99.59
2019-03-25T07:24:43.875Z,99.48
2019-03-25T07:25:43.865Z,99.69
2019-03-25T07:26:43.854Z,99.90
2019-03-25T07:27:43.844Z,99.90
2019-03-25T07:28:43.841Z,99.99
2019-03-25T07:29:43.822Z,99.99
2019-03-25T07:30:43.811Z,99.99
2019-03-25T07:31:43.802Z,99.90
2019-03-25T07:32:43.790Z,99.75
2019-03-25T07:33:43.824Z,99.96
2019-03-25T07:34:43.768Z,99.75
2019-03-25T07:35:43.760Z,99.99
2019-03-25T07:36:43.748Z,99.99
2019-03-25T07:37:43.746Z,99.99
2019-03-25T07:38:43.732Z,99.99
2019-03-25T07:39:43.715Z,99.99
2019-03-25T07:40:43.706Z,99.99
2019-03-25T07:41:43.696Z,99.99
2019-03-25T07:42:43.684Z,99.99
2019-03-25T07:43:43.673Z,99.99
2019-03-25T07:44:43.667Z,99.99
2019-03-25T07:45:43.652Z,99.99
2019-03-25T07:46:43.645Z,99.99
2019-03-25T07:47:43.635Z,99.99
2019-03-25T07:48:43.623Z,99.99
2019-03-25T07:49:43.611Z,99.99
2019-03-25T07:50:43.598Z,99.99
2019-03-25T07:51:43.586Z,99.99
2019-03-25T07:52:43.579Z,99.99
2019-03-25T07:53:43.578Z,99.99
2019-03-25T07:54:43.567Z,99.99
2019-03-25T07:55:43.545Z,99.88
2019-03-25T07:56:43.544Z,99.99
2019-03-25T07:57:48.207Z,99.99
2019-03-25T07:58:44.520Z,99.99
2019-03-25T07:59:43.520Z,99.36
2019-03-25T08:00:43.509Z,99.46
2019-03-25T08:01:43.490Z,99.42
2019-03-25T08:02:43.485Z,99.36
2019-03-25T08:03:43.463Z,99.63
2019-03-25T08:04:43.448Z,99.52
2019-03-25T08:05:43.447Z,99.42
2019-03-25T08:06:43.477Z,99.21
2019-03-25T08:07:43.451Z,99.01
2019-03-25T08:08:43.419Z,98.75
2019-03-25T08:09:43.432Z,99.27
2019-03-25T08:10:43.392Z,99.16
2019-03-25T08:11:43.378Z,98.71
2019-03-25T08:12:43.399Z,99.12
2019-03-25T08:13:43.364Z,98.29
2019-03-25T08:14:43.344Z,97.83
2019-03-25T08:15:43.332Z,98.14
2019-03-25T08:16:43.322Z,98.14
2019-03-25T08:17:43.313Z,97.93
2019-03-25T08:18:43.306Z,98.03
2019-03-25T08:19:43.288Z,97.31
2019-03-25T08:20:43.279Z,97.62
2019-03-25T08:21:43.271Z,97.20
2019-03-25T08:22:43.256Z,97.10
2019-03-25T08:23:43.245Z,96.79
2019-03-25T08:24:43.234Z,97.41
2019-03-25T08:25:43.223Z,97.41
2019-03-25T08:26:43.215Z,97.37
2019-03-25T08:27:43.202Z,96.69
2019-03-25T08:28:43.198Z,97.00
2019-03-25T08:29:43.182Z,96.89
2019-03-25T08:30:43.172Z,97.20
2019-03-25T08:31:43.159Z,96.79
2019-03-25T08:32:43.151Z,97.10
2019-03-25T08:33:43.139Z,96.69
2019-03-25T08:34:43.128Z,97.20
2019-03-25T08:35:43.116Z,97.20
2019-03-25T08:36:43.106Z,96.79
2019-03-25T08:37:43.096Z,97.20
2019-03-25T08:38:43.088Z,97.06
2019-03-25T08:39:43.073Z,96.64
2019-03-25T08:40:43.063Z,97.10
2019-03-25T08:41:43.053Z,97.16
2019-03-25T08:42:43.040Z,96.95
2019-03-25T08:43:43.030Z,96.75
2019-03-25T08:44:43.020Z,96.54
2019-03-25T08:45:43.009Z,95.77
2019-03-25T08:46:42.998Z,95.81
2019-03-25T08:47:42.989Z,95.92
2019-03-25T08:48:43.044Z,95.67
2019-03-25T08:49:42.967Z,95.41
2019-03-25T08:50:42.959Z,95.67
2019-03-25T08:51:42.948Z,94.84
2019-03-25T08:52:42.936Z,95.31
2019-03-25T08:53:42.924Z,94.48
2019-03-25T08:54:42.913Z,94.37
2019-03-25T08:55:42.903Z,94.79
2019-03-25T08:56:42.893Z,94.53
2019-03-25T08:57:42.882Z,94.58
2019-03-25T08:58:42.876Z,94.37
2019-03-25T08:59:42.865Z,95.20
2019-03-25T09:00:42.849Z,95.72
2019-03-25T09:01:42.839Z,94.63
2019-03-25T09:02:42.827Z,94.11
2019-03-25T09:03:42.817Z,94.63
2019-03-25T09:04:42.810Z,94.63
2019-03-25T09:05:42.796Z,94.63
2019-03-25T09:06:42.785Z,94.37
2019-03-25T09:07:42.776Z,94.43
2019-03-25T09:08:42.766Z,93.77
2019-03-25T09:09:42.752Z,93.15
2019-03-25T09:10:42.742Z,91.49
2019-03-25T09:11:42.730Z,91.86
2019-03-25T09:12:42.728Z,91.45
2019-03-25T09:13:42.709Z,90.52
2019-03-25T09:14:42.702Z,90.93
2019-03-25T09:15:42.688Z,91.60
2019-03-25T09:16:42.676Z,91.66
2019-03-25T09:17:42.667Z,91.39
2019-03-25T09:18:42.659Z,91.49
2019-03-25T09:19:42.644Z,91.80
2019-03-25T09:20:42.633Z,91.80
2019-03-25T09:21:42.623Z,91.08
2019-03-25T09:22:42.614Z,92.01
2019-03-25T09:23:42.602Z,91.28
2019-03-25T09:24:42.592Z,90.93
2019-03-25T09:25:42.579Z,91.55
2019-03-25T09:26:42.568Z,91.82
2019-03-25T09:27:42.563Z,91.41
2019-03-25T09:28:42.550Z,91.61
2019-03-25T09:29:42.538Z,91.41
2019-03-25T09:30:42.526Z,90.99
2019-03-25T09:31:42.515Z,90.58
2019-03-25T09:32:42.502Z,90.74
2019-03-25T09:33:42.492Z,90.84
2019-03-25T09:34:42.481Z,90.12
2019-03-25T09:35:42.510Z,89.67
2019-03-25T09:36:42.460Z,90.04
2019-03-25T09:37:42.451Z,87.76
2019-03-25T09:38:42.444Z,87.87
2019-03-25T09:39:42.427Z,87.91
2019-03-25T09:40:42.417Z,89.42
2019-03-25T09:41:42.406Z,88.59
2019-03-25T09:42:42.396Z,88.18
2019-03-25T09:43:42.384Z,87.41
2019-03-25T09:44:42.373Z,87.52
2019-03-25T09:45:42.364Z,85.97
2019-03-25T09:46:42.353Z,88.34
2019-03-25T09:47:42.341Z,86.07
2019-03-25T09:48:42.335Z,85.97
2019-03-25T09:49:42.320Z,87.52
2019-03-25T09:50:42.310Z,86.07
2019-03-25T09:51:42.360Z,86.07
2019-03-25T09:52:42.287Z,85.86
2019-03-25T09:53:42.276Z,84.38
2019-03-25T09:54:42.268Z,84.11
2019-03-25T09:55:42.257Z,84.17
2019-03-25T09:56:42.249Z,84.89
2019-03-25T09:57:42.299Z,85.85
2019-03-25T09:58:42.228Z,82.86
2019-03-25T09:59:42.210Z,83.23
2019-03-25T10:00:42.200Z,81.79
2019-03-25T10:01:42.192Z,81.23
2019-03-25T10:02:42.179Z,79.69
2019-03-25T10:03:42.168Z,79.96
2019-03-25T10:04:42.158Z,80.82
2019-03-25T10:05:42.149Z,82.95
2019-03-25T10:06:42.137Z,81.71
2019-03-25T10:07:42.126Z,80.58
2019-03-25T10:08:42.118Z,78.52
2019-03-25T10:09:42.105Z,77.01
2019-03-25T10:10:42.097Z,78.04
2019-03-25T10:11:42.082Z,77.69
2019-03-25T10:12:42.073Z,75.87
2019-03-25T10:13:42.061Z,76.98
2019-03-25T10:14:42.051Z,77.56
2019-03-25T10:15:42.045Z,77.70
2019-03-25T10:16:42.029Z,78.52
2019-03-25T10:17:42.019Z,78.35
2019-03-25T10:18:42.009Z,78.28
2019-03-25T10:19:42.002Z,78.18
2019-03-25T10:20:41.988Z,77.70
2019-03-25T10:21:41.983Z,79.29
2019-03-25T10:22:41.965Z,79.91
2019-03-25T10:23:41.957Z,80.11
2019-03-25T10:24:41.943Z,80.84
2019-03-25T10:25:41.934Z,81.46
2019-03-25T10:26:41.920Z,81.35
2019-03-25T10:27:41.912Z,82.08
2019-03-25T10:28:48.546Z,81.98
2019-03-25T10:29:42.886Z,82.25
2019-03-25T10:30:41.877Z,81.73
2019-03-25T10:31:41.873Z,83.34
2019-03-25T10:32:41.854Z,82.45
2019-03-25T10:33:41.846Z,78.24
2019-03-25T10:34:41.833Z,77.35
2019-03-25T10:35:41.823Z,77.66
2019-03-25T10:36:41.813Z,79.51
2019-03-25T10:37:41.801Z,79.82
2019-03-25T10:38:41.793Z,79.75
2019-03-25T10:39:41.780Z,79.48
2019-03-25T10:40:41.768Z,79.66
2019-03-25T10:41:41.765Z,81.51
2019-03-25T10:42:41.748Z,82.21
2019-03-25T10:43:41.737Z,83.80
2019-03-25T10:44:41.731Z,84.52
2019-03-25T10:45:41.715Z,85.86
2019-03-25T10:46:41.707Z,87.23
2019-03-25T10:47:41.693Z,84.92
2019-03-25T10:48:41.686Z,83.81
2019-03-25T10:49:41.674Z,83.15
2019-03-25T10:50:41.661Z,81.47
2019-03-25T10:51:41.650Z,81.74
2019-03-25T10:52:41.640Z,81.97
2019-03-25T10:53:41.630Z,78.85
2019-03-25T10:54:41.716Z,78.54
2019-03-25T10:55:41.609Z,76.65
2019-03-25T10:56:48.985Z,72.00
2019-03-25T10:57:42.583Z,70.81
2019-03-25T10:58:41.576Z,71.36
2019-03-25T10:59:41.563Z,71.15
2019-03-25T11:00:41.562Z,69.92
2019-03-25T11:01:41.544Z,70.09
2019-03-25T11:02:41.532Z,74.19
2019-03-25T11:03:41.519Z,74.63
2019-03-25T11:04:41.509Z,72.06
2019-03-25T11:05:41.501Z,73.26
2019-03-25T11:06:41.486Z,74.74
2019-03-25T11:08:41.470Z,77.25
2019-03-25T11:09:41.453Z,76.15
2019-03-25T11:10:41.442Z,77.18
2019-03-25T11:11:41.433Z,76.32
2019-03-25T11:12:41.420Z,76.28
2019-03-25T11:13:41.412Z,75.25
2019-03-25T11:14:41.399Z,73.33
2019-03-25T11:15:41.387Z,72.89
2019-03-25T11:16:41.378Z,73.33
2019-03-25T11:17:41.366Z,74.02
2019-03-25T11:18:41.359Z,72.03
2019-03-25T11:19:41.353Z,67.90
2019-03-25T11:20:41.334Z,68.44
2019-03-25T11:21:41.323Z,70.66
2019-03-25T11:22:41.312Z,71.00
2019-03-25T11:23:41.301Z,71.72
2019-03-25T11:24:41.290Z,72.03
2019-03-25T11:25:41.279Z,70.25
2019-03-25T11:26:41.269Z,71.62
2019-03-25T11:27:41.257Z,72.34
2019-03-25T11:28:41.251Z,71.38
2019-03-25T11:29:41.240Z,69.64
2019-03-25T11:30:41.225Z,71.17
2019-03-25T11:31:41.215Z,67.79
2019-03-25T11:32:41.203Z,66.78
2019-03-25T11:33:41.193Z,66.84
2019-03-25T11:34:41.185Z,66.71
2019-03-25T11:35:41.178Z,63.21
2019-03-25T11:36:41.163Z,64.30
2019-03-25T11:37:41.149Z,64.32
2019-03-25T11:38:41.141Z,68.21
2019-03-25T11:39:41.128Z,67.86
2019-03-25T11:40:41.117Z,68.81
2019-03-25T11:41:41.106Z,69.74
2019-03-25T11:42:41.096Z,70.66
2019-03-25T11:43:41.083Z,68.92
2019-03-25T11:44:41.073Z,66.80
2019-03-25T11:45:41.062Z,69.40
2019-03-25T11:46:41.053Z,69.40
2019-03-25T11:47:41.040Z,70.60
2019-03-25T11:48:41.032Z,69.92
2019-03-25T11:49:41.018Z,70.67
2019-03-25T11:50:41.008Z,64.81
2019-03-25T11:51:40.999Z,62.20
2019-03-25T11:52:40.986Z,63.03
2019-03-25T11:53:40.974Z,63.20
2019-03-25T11:54:40.964Z,67.25
2019-03-25T11:55:40.952Z,71.28
2019-03-25T11:56:40.943Z,68.27
2019-03-25T11:57:40.932Z,69.57
2019-03-25T11:58:40.923Z,68.08
2019-03-25T11:59:40.909Z,64.43
2019-03-25T12:00:40.897Z,63.63
2019-03-25T12:01:40.886Z,59.97
2019-03-25T12:02:40.880Z,59.26
2019-03-25T12:03:40.867Z,59.00
2019-03-25T12:04:40.864Z,59.14
2019-03-25T12:05:40.860Z,61.58
2019-03-25T12:06:40.833Z,59.41
2019-03-25T12:07:40.821Z,58.54
2019-03-25T12:08:40.813Z,57.50
2019-03-25T12:09:41.656Z,57.34
2019-03-25T12:10:40.789Z,54.36
2019-03-25T12:11:40.778Z,54.41
2019-03-25T12:12:40.768Z,53.78
2019-03-25T12:13:40.795Z,53.93
2019-03-25T12:14:40.744Z,51.34
2019-03-25T12:15:40.735Z,51.97
2019-03-25T12:16:40.723Z,50.93
2019-03-25T12:17:40.715Z,49.79
2019-03-25T12:18:40.702Z,47.91
2019-03-25T12:19:40.691Z,50.43
2019-03-25T12:20:40.680Z,48.97
2019-03-25T12:21:40.669Z,51.35
2019-03-25T12:22:40.658Z,55.38
2019-03-25T12:23:40.650Z,56.33
2019-03-25T12:24:40.639Z,60.21
2019-03-25T12:25:40.628Z,59.25
2019-03-25T12:26:40.616Z,59.33
2019-03-25T12:27:40.697Z,60.41
2019-03-25T12:28:40.596Z,63.10
2019-03-25T12:29:40.586Z,62.56
2019-03-25T12:30:40.572Z,61.09
2019-03-25T12:31:40.562Z,59.78
2019-03-25T12:32:40.551Z,61.92
2019-03-25T12:33:40.543Z,62.85
2019-03-25T12:34:40.529Z,61.70
2019-03-25T12:35:40.518Z,60.17
2019-03-25T12:36:40.507Z,60.42
2019-03-25T12:37:40.496Z,61.69
2019-03-25T12:38:40.485Z,63.09
2019-03-25T12:39:40.475Z,64.53
2019-03-25T12:40:40.462Z,62.95
2019-03-25T12:41:40.452Z,63.22
2019-03-25T12:42:40.441Z,61.24
2019-03-25T12:43:40.430Z,60.05
2019-03-25T12:44:40.418Z,53.96
2019-03-25T12:45:40.407Z,53.19
2019-03-25T12:46:40.398Z,52.40
2019-03-25T12:47:40.387Z,53.09
2019-03-25T12:48:40.375Z,51.26
2019-03-25T12:49:40.367Z,52.43
2019-03-25T12:50:40.353Z,51.01
2019-03-25T12:51:40.345Z,48.44
2019-03-25T12:52:40.332Z,48.02
2019-03-25T12:53:40.322Z,47.49